createdAt,value
2018-05-27T00:01:26.563Z,4.17
2018-05-27T00:03:54.133Z,4.23
2018-05-27T00:06:21.775Z,3.87
2018-05-27T00:08:49.301Z,4.47
2018-05-27T00:11:17.616Z,3.67
2018-05-27T00:13:45.168Z,4.00
2018-05-27T00:16:12.692Z,4.07
2018-05-27T00:18:40.281Z,4.33
2018-05-27T00:21:07.834Z,4.33
2018-05-27T00:23:35.396Z,4.67
2018-05-27T00:26:02.913Z,3.93
2018-05-27T00:28:31.244Z,4.20
2018-05-27T00:30:58.800Z,4.10
2018-05-27T00:33:26.350Z,4.30
2018-05-27T00:35:53.908Z,4.17
2018-05-27T00:38:21.437Z,4.97
2018-05-27T00:40:49.718Z,4.30
2018-05-27T00:43:18.050Z,4.07
2018-05-27T00:45:45.571Z,5.10
2018-05-27T00:48:13.081Z,5.17
2018-05-27T00:50:40.795Z,5.10
2018-05-27T00:53:08.376Z,4.87
2018-05-27T00:55:35.914Z,4.50
2018-05-27T00:58:03.471Z,5.37
2018-05-27T01:00:30.994Z,4.80
2018-05-27T01:02:59.318Z,5.07
2018-05-27T01:05:27.205Z,5.70
2018-05-27T01:07:54.749Z,5.07
2018-05-27T01:10:22.289Z,4.87
2018-05-27T01:12:49.849Z,5.30
2018-05-27T01:15:17.401Z,5.70
2018-05-27T01:17:44.964Z,5.20
2018-05-27T01:20:12.534Z,4.97
2018-05-27T01:22:40.085Z,5.10
2018-05-27T01:25:07.642Z,5.20
2018-05-27T01:27:35.308Z,5.83
2018-05-27T01:30:02.840Z,5.17
2018-05-27T01:32:30.436Z,5.00
2018-05-27T01:34:58.005Z,5.23
2018-05-27T01:37:25.530Z,5.57
2018-05-27T01:39:53.111Z,4.80
2018-05-27T01:42:20.658Z,5.17
2018-05-27T01:44:49.243Z,6.20
2018-05-27T01:47:16.806Z,4.87
2018-05-27T01:49:44.480Z,5.30
2018-05-27T01:52:12.015Z,4.30
2018-05-27T01:54:39.582Z,5.20
2018-05-27T01:57:07.169Z,5.53
2018-05-27T01:59:34.704Z,5.37
2018-05-27T02:02:02.345Z,5.70
2018-05-27T02:04:29.913Z,5.40
2018-05-27T02:06:57.482Z,5.47
2018-05-27T02:09:25.070Z,5.47
2018-05-27T02:11:52.692Z,5.90
2018-05-27T02:14:20.254Z,5.53
2018-05-27T02:16:47.809Z,5.23
2018-05-27T02:19:15.371Z,5.20
2018-05-27T02:21:42.889Z,5.40
2018-05-27T02:24:11.206Z,5.77
2018-05-27T02:26:38.775Z,5.43
2018-05-27T02:29:06.295Z,5.40
2018-05-27T02:31:34.573Z,5.80
2018-05-27T02:34:02.979Z,5.97
2018-05-27T02:36:43.042Z,5.60
2018-05-27T02:39:10.612Z,6.40
2018-05-27T02:41:38.240Z,5.87
2018-05-27T02:44:05.814Z,5.50
2018-05-27T02:46:33.376Z,6.33
2018-05-27T02:49:00.915Z,5.77
2018-05-27T02:51:28.437Z,5.80
2018-05-27T02:53:56.861Z,6.20
2018-05-27T02:56:24.396Z,6.80
2018-05-27T02:58:52.709Z,6.03
2018-05-27T03:01:20.279Z,6.60
2018-05-27T03:03:47.826Z,6.30
2018-05-27T03:06:15.383Z,6.70
2018-05-27T03:08:42.948Z,7.43
2018-05-27T03:11:10.471Z,6.83
2018-05-27T03:13:37.995Z,7.47
2018-05-27T03:16:05.663Z,7.13
2018-05-27T03:18:33.175Z,7.33
2018-05-27T03:21:00.748Z,7.27
2018-05-27T03:23:28.303Z,7.20
2018-05-27T03:25:55.841Z,8.10
2018-05-27T03:28:23.360Z,7.90
2018-05-27T03:30:51.802Z,7.33
2018-05-27T03:33:19.343Z,7.73
2018-05-27T03:35:46.856Z,7.47
2018-05-27T03:38:15.174Z,7.80
2018-05-27T03:40:42.699Z,7.50
2018-05-27T03:43:10.977Z,7.53
2018-05-27T03:45:39.312Z,7.90
2018-05-27T03:48:06.964Z,7.57
2018-05-27T03:50:34.486Z,7.50
2018-05-27T03:53:02.032Z,8.60
2018-05-27T03:55:30.330Z,7.60
2018-05-27T03:57:57.859Z,7.70
2018-05-27T04:00:26.254Z,8.50
2018-05-27T04:02:53.844Z,7.90
2018-05-27T04:05:33.380Z,8.07
2018-05-27T04:08:12.921Z,7.83
2018-05-27T04:10:40.502Z,7.60
2018-05-27T04:13:08.356Z,8.73
2018-05-27T04:15:35.870Z,9.00
2018-05-27T04:18:04.215Z,7.83
2018-05-27T04:20:31.866Z,7.60
2018-05-27T04:22:59.381Z,9.07
2018-05-27T04:25:26.945Z,9.00
2018-05-27T04:27:54.481Z,8.30
2018-05-27T04:30:22.786Z,8.10
2018-05-27T04:32:50.358Z,8.47
2018-05-27T04:35:18.730Z,8.40
2018-05-27T04:37:46.241Z,7.73
2018-05-27T04:40:14.572Z,8.47
2018-05-27T04:42:42.116Z,8.80
2018-05-27T04:45:10.202Z,7.50
2018-05-27T04:47:37.761Z,8.37
2018-05-27T04:50:05.277Z,7.43
2018-05-27T04:52:33.627Z,7.73
2018-05-27T04:55:01.241Z,7.50
2018-05-27T04:57:28.749Z,8.07
2018-05-27T04:59:56.363Z,8.60
2018-05-27T05:02:23.907Z,9.37
2018-05-27T05:04:51.472Z,8.30
2018-05-27T05:07:18.993Z,8.87
2018-05-27T05:09:47.307Z,8.63
2018-05-27T05:12:14.871Z,7.87
2018-05-27T05:14:42.390Z,8.20
2018-05-27T05:17:10.728Z,8.00
2018-05-27T05:19:38.277Z,8.27
2018-05-27T05:22:05.878Z,7.97
2018-05-27T05:24:34.519Z,8.87
2018-05-27T05:27:02.078Z,8.87
2018-05-27T05:29:29.621Z,8.13
2018-05-27T05:31:57.179Z,8.83
2018-05-27T05:34:24.753Z,8.07
2018-05-27T05:36:52.277Z,8.70
2018-05-27T05:39:19.829Z,9.63
2018-05-27T05:41:48.149Z,8.10
2018-05-27T05:44:15.695Z,8.13
2018-05-27T05:46:43.255Z,7.93
2018-05-27T05:49:10.807Z,7.70
2018-05-27T05:51:38.319Z,8.00
2018-05-27T05:54:05.879Z,7.80
2018-05-27T05:56:33.397Z,7.53
2018-05-27T05:59:00.927Z,7.70
2018-05-27T06:01:29.117Z,7.70
2018-05-27T06:03:56.653Z,7.40
2018-05-27T06:06:24.157Z,7.53
2018-05-27T06:08:51.698Z,6.97
2018-05-27T06:11:19.275Z,7.20
2018-05-27T06:13:46.844Z,7.80
2018-05-27T06:16:14.467Z,6.70
2018-05-27T06:18:41.993Z,6.87
2018-05-27T06:21:10.311Z,6.90
2018-05-27T06:23:37.959Z,7.17
2018-05-27T06:26:05.478Z,7.47
2018-05-27T06:28:32.998Z,7.20
2018-05-27T06:31:00.639Z,7.77
2018-05-27T06:33:28.193Z,7.13
2018-05-27T06:35:55.824Z,7.70
2018-05-27T06:38:24.153Z,7.27
2018-05-27T06:40:51.691Z,8.17
2018-05-27T06:43:19.224Z,7.10
2018-05-27T06:45:47.528Z,7.70
2018-05-27T06:48:15.090Z,6.60
2018-05-27T06:50:42.663Z,7.70
2018-05-27T06:53:10.214Z,7.30
2018-05-27T06:55:37.776Z,6.43
2018-05-27T06:58:05.310Z,6.90
2018-05-27T07:00:32.851Z,6.77
2018-05-27T07:03:01.161Z,7.37
2018-05-27T07:05:28.717Z,6.43
2018-05-27T07:07:56.298Z,7.20
2018-05-27T07:10:23.951Z,7.30
2018-05-27T07:12:51.467Z,7.27
2018-05-27T07:15:19.792Z,6.00
2018-05-27T07:17:48.783Z,6.90
2018-05-27T07:20:16.323Z,7.20
2018-05-27T07:22:43.844Z,6.90
2018-05-27T07:25:12.172Z,6.80
2018-05-27T07:27:39.819Z,7.37
2018-05-27T07:30:07.382Z,6.50
2018-05-27T07:32:35.068Z,7.20
2018-05-27T07:35:02.618Z,6.70
2018-05-27T07:37:30.168Z,7.33
2018-05-27T07:39:57.732Z,6.63
2018-05-27T07:42:25.253Z,6.47
2018-05-27T07:44:52.844Z,7.27
2018-05-27T07:47:20.391Z,7.40
2018-05-27T07:49:47.945Z,6.50
2018-05-27T07:52:15.470Z,6.40
2018-05-27T07:54:43.987Z,6.57
2018-05-27T07:57:11.520Z,7.27
2018-05-27T07:59:39.076Z,7.00
2018-05-27T08:02:07.394Z,6.63
2018-05-27T08:04:34.925Z,7.20
2018-05-27T08:07:02.487Z,7.23
2018-05-27T08:09:30.113Z,7.00
2018-05-27T08:11:57.647Z,7.57
2018-05-27T08:14:25.188Z,7.27
2018-05-27T08:16:52.741Z,5.70
2018-05-27T08:19:20.254Z,7.33
2018-05-27T08:21:48.546Z,7.40
2018-05-27T08:24:16.964Z,6.70
2018-05-27T08:26:44.503Z,6.77
2018-05-27T08:29:12.037Z,7.47
2018-05-27T08:31:40.359Z,7.27
2018-05-27T08:34:07.905Z,7.67
2018-05-27T08:36:35.431Z,7.03
2018-05-27T08:39:03.756Z,7.00
2018-05-27T08:41:31.294Z,7.47
2018-05-27T08:43:58.841Z,7.40
2018-05-27T08:46:26.418Z,6.23
2018-05-27T08:48:54.322Z,6.73
2018-05-27T08:51:21.839Z,6.30
2018-05-27T08:53:49.390Z,6.50
2018-05-27T08:56:16.971Z,6.87
2018-05-27T08:58:44.508Z,7.03
2018-05-27T09:01:12.113Z,7.50
2018-05-27T09:03:39.689Z,6.80
2018-05-27T09:06:07.200Z,6.97
2018-05-27T09:08:34.740Z,6.27
2018-05-27T09:11:02.271Z,6.47
2018-05-27T09:13:30.561Z,6.43
2018-05-27T09:15:58.372Z,6.57
2018-05-27T09:18:26.015Z,7.10
2018-05-27T09:20:53.531Z,7.63
2018-05-27T09:23:21.859Z,7.00
2018-05-27T09:25:49.528Z,6.20
2018-05-27T09:28:17.045Z,5.90
2018-05-27T09:30:44.629Z,6.90
2018-05-27T09:33:12.203Z,6.40
2018-05-27T09:35:39.729Z,5.60
2018-05-27T09:38:07.302Z,5.90
2018-05-27T09:40:34.969Z,5.53
2018-05-27T09:43:02.615Z,5.83
2018-05-27T09:45:30.216Z,6.30
2018-05-27T09:47:57.737Z,6.53
2018-05-27T09:50:25.311Z,6.27
2018-05-27T09:52:52.850Z,6.27
2018-05-27T09:55:20.528Z,5.60
2018-05-27T09:57:48.087Z,5.80
2018-05-27T10:00:15.600Z,5.30
2018-05-27T10:02:44.005Z,5.97
2018-05-27T10:05:11.524Z,6.03
2018-05-27T10:07:39.809Z,6.00
2018-05-27T10:10:08.226Z,5.60
2018-05-27T10:12:35.786Z,6.03
2018-05-27T10:15:03.298Z,6.40
2018-05-27T10:17:31.721Z,5.30
2018-05-27T10:19:59.275Z,4.70
2018-05-27T10:22:26.797Z,6.10
2018-05-27T10:24:55.157Z,5.77
2018-05-27T10:27:23.104Z,5.50
2018-05-27T10:29:50.650Z,5.80
2018-05-27T10:32:18.211Z,5.50
2018-05-27T10:34:45.736Z,6.13
2018-05-27T10:37:13.267Z,5.27
2018-05-27T10:39:40.888Z,5.40
2018-05-27T10:42:08.410Z,5.43
2018-05-27T10:44:35.937Z,5.90
2018-05-27T10:47:04.997Z,5.07
2018-05-27T10:49:32.545Z,6.27
2018-05-27T10:52:00.114Z,5.90
2018-05-27T10:54:27.784Z,5.33
2018-05-27T10:56:55.312Z,5.47
2018-05-27T10:59:22.828Z,5.40
2018-05-27T11:01:51.894Z,5.90
2018-05-27T11:04:19.415Z,5.83
2018-05-27T11:06:46.963Z,5.90
2018-05-27T11:09:15.282Z,5.87
2018-05-27T11:11:42.836Z,6.10
2018-05-27T11:14:10.393Z,5.00
2018-05-27T11:16:37.947Z,5.67
2018-05-27T11:19:05.492Z,5.50
2018-05-27T11:21:33.049Z,5.90
2018-05-27T11:24:00.622Z,5.70
2018-05-27T11:26:28.152Z,6.13
2018-05-27T11:28:56.471Z,5.80
2018-05-27T11:31:24.965Z,6.27
2018-05-27T11:33:52.607Z,5.07
2018-05-27T11:36:20.123Z,6.13
2018-05-27T11:38:48.412Z,5.90
2018-05-27T11:41:15.987Z,5.13
2018-05-27T11:43:43.497Z,5.03
2018-05-27T11:46:11.070Z,5.70
2018-05-27T11:48:39.437Z,5.63
2018-05-27T11:51:06.938Z,5.37
2018-05-27T11:53:34.481Z,5.87
2018-05-27T11:56:02.285Z,5.50
2018-05-27T11:58:29.856Z,5.30
2018-05-27T12:00:57.377Z,5.03
2018-05-27T12:03:24.973Z,5.50
2018-05-27T12:05:52.608Z,5.70
2018-05-27T12:08:20.127Z,5.73
2018-05-27T12:10:48.543Z,5.10
2018-05-27T12:13:16.117Z,5.37
2018-05-27T12:15:43.664Z,4.80
2018-05-27T12:18:11.237Z,5.60
2018-05-27T12:20:38.774Z,5.60
2018-05-27T12:23:06.353Z,5.40
2018-05-27T12:25:33.992Z,5.43
2018-05-27T12:28:02.749Z,5.70
2018-05-27T12:30:31.173Z,5.40
2018-05-27T12:32:58.705Z,5.77
2018-05-27T12:35:27.170Z,5.73
2018-05-27T12:37:55.497Z,5.90
2018-05-27T12:40:23.130Z,5.20
2018-05-27T12:42:50.818Z,5.60
2018-05-27T12:45:19.192Z,5.30
2018-05-27T12:47:46.743Z,5.50
2018-05-27T12:50:14.266Z,5.53
2018-05-27T12:52:41.861Z,5.53
2018-05-27T12:55:09.409Z,6.03
2018-05-27T12:57:36.970Z,5.10
2018-05-27T13:00:04.511Z,5.70
2018-05-27T13:02:32.045Z,5.43
2018-05-27T13:05:00.370Z,6.20
2018-05-27T13:07:27.899Z,5.40
2018-05-27T13:09:55.488Z,5.50
2018-05-27T13:12:23.017Z,5.67
2018-05-27T13:14:50.557Z,5.53
2018-05-27T13:17:18.861Z,5.77
2018-05-27T13:19:46.432Z,5.27
2018-05-27T13:22:13.944Z,5.77
2018-05-27T13:24:41.551Z,5.83
2018-05-27T13:27:09.085Z,6.17
2018-05-27T13:29:36.639Z,5.50
2018-05-27T13:32:04.956Z,5.77
2018-05-27T13:34:32.516Z,5.87
2018-05-27T13:37:00.457Z,6.20
2018-05-27T13:39:27.982Z,5.27
2018-05-27T13:41:56.335Z,6.20
2018-05-27T13:44:23.979Z,5.90
2018-05-27T13:46:51.508Z,5.83
2018-05-27T13:49:19.077Z,5.87
2018-05-27T13:51:46.582Z,5.90
2018-05-27T13:54:14.173Z,6.03
2018-05-27T13:56:41.773Z,6.27
2018-05-27T13:59:09.964Z,5.90
2018-05-27T14:01:37.586Z,5.87
2018-05-27T14:04:05.196Z,5.33
2018-05-27T14:06:32.738Z,5.67
2018-05-27T14:09:00.286Z,5.70
2018-05-27T14:11:30.522Z,5.80
2018-05-27T14:13:58.363Z,5.40
2018-05-27T14:16:25.892Z,5.50
2018-05-27T14:18:53.478Z,6.20
2018-05-27T14:21:21.176Z,5.90
2018-05-27T14:23:48.708Z,6.20
2018-05-27T14:26:16.267Z,5.57
2018-05-27T14:28:43.824Z,6.13
2018-05-27T14:31:11.371Z,6.33
2018-05-27T14:33:38.934Z,6.40
2018-05-27T14:36:06.493Z,5.30
2018-05-27T14:38:34.059Z,6.37
2018-05-27T14:41:01.608Z,5.73
2018-05-27T14:43:29.280Z,5.57
2018-05-27T14:45:56.825Z,6.60
2018-05-27T14:48:24.359Z,6.60
2018-05-27T14:50:52.046Z,6.20
2018-05-27T14:53:19.609Z,5.80
2018-05-27T14:55:47.488Z,6.37
2018-05-27T14:58:15.035Z,5.87
2018-05-27T15:00:42.594Z,6.03
2018-05-27T15:03:10.122Z,6.20
2018-05-27T15:05:37.733Z,6.17
2018-05-27T15:08:05.391Z,6.80
2018-05-27T15:10:32.925Z,6.73
2018-05-27T15:13:00.437Z,7.83
2018-05-27T15:15:28.055Z,6.50
2018-05-27T15:17:55.578Z,6.20
2018-05-27T15:20:23.990Z,6.43
2018-05-27T15:22:51.522Z,5.77
2018-05-27T15:25:19.122Z,6.47
2018-05-27T15:27:46.770Z,6.60
2018-05-27T15:30:19.233Z,6.23
2018-05-27T15:32:46.798Z,6.63
2018-05-27T15:35:14.324Z,6.23
2018-05-27T15:37:42.040Z,6.60
2018-05-27T15:40:09.678Z,7.63
2018-05-27T15:42:37.216Z,7.93
2018-05-27T15:45:04.795Z,7.30
2018-05-27T15:47:32.309Z,7.20
2018-05-27T15:50:00.597Z,7.10
2018-05-27T15:52:28.917Z,7.80
2018-05-27T15:54:56.434Z,7.60
2018-05-27T15:57:24.771Z,7.23
2018-05-27T15:59:52.395Z,7.53
2018-05-27T16:02:19.962Z,7.50
2018-05-27T16:04:47.637Z,8.10
2018-05-27T16:07:15.194Z,7.17
2018-05-27T16:09:42.760Z,7.40
2018-05-27T16:12:10.312Z,7.27
2018-05-27T16:14:37.858Z,6.17
2018-05-27T16:17:05.418Z,6.17
2018-05-27T16:19:32.940Z,5.80
2018-05-27T16:22:01.343Z,5.23
2018-05-27T16:24:28.852Z,6.03
2018-05-27T16:26:56.402Z,5.50
2018-05-27T16:29:23.937Z,5.53
2018-05-27T16:31:51.897Z,5.53
2018-05-27T16:34:19.468Z,5.60
2018-05-27T16:36:47.014Z,6.03
2018-05-27T16:39:14.563Z,5.70
2018-05-27T16:41:42.129Z,7.27
2018-05-27T16:44:10.196Z,5.10
2018-05-27T16:46:37.796Z,6.20
2018-05-27T16:49:05.295Z,6.10
2018-05-27T16:51:32.813Z,6.43
2018-05-27T16:54:00.434Z,6.10
2018-05-27T16:56:27.999Z,5.40
2018-05-27T16:58:55.555Z,5.83
2018-05-27T17:01:23.069Z,5.30
2018-05-27T17:03:51.403Z,4.87
2018-05-27T17:06:19.379Z,5.10
2018-05-27T17:08:46.930Z,4.90
2018-05-27T17:11:14.585Z,4.70
2018-05-27T17:13:42.143Z,5.00
2018-05-27T17:16:09.654Z,4.90
2018-05-27T17:18:37.958Z,4.47
2018-05-27T17:21:05.547Z,5.03
2018-05-27T17:23:33.106Z,4.90
2018-05-27T17:26:00.640Z,4.70
2018-05-27T17:28:28.213Z,4.70
2018-05-27T17:30:55.759Z,5.33
2018-05-27T17:33:23.288Z,4.50
2018-05-27T17:35:51.704Z,4.60
2018-05-27T17:38:19.241Z,4.40
2018-05-27T17:40:46.817Z,4.43
2018-05-27T17:43:14.348Z,4.00
2018-05-27T17:45:42.653Z,5.70
2018-05-27T17:48:10.213Z,5.60
2018-05-27T17:50:37.747Z,4.70
2018-05-27T17:53:05.339Z,4.57
2018-05-27T17:55:32.891Z,4.40
2018-05-27T17:58:01.345Z,4.80
2018-05-27T18:00:28.911Z,4.50
2018-05-27T18:02:56.434Z,4.23
2018-05-27T18:05:23.964Z,4.60
2018-05-27T18:07:51.512Z,4.80
2018-05-27T18:10:19.034Z,5.00
2018-05-27T18:12:47.391Z,5.60
2018-05-27T18:15:15.718Z,5.97
2018-05-27T18:17:43.604Z,6.77
2018-05-27T18:20:11.149Z,7.70
2018-05-27T18:22:38.679Z,7.53
2018-05-27T18:25:06.262Z,7.60
2018-05-27T18:27:33.845Z,12.70
2018-05-27T18:30:02.205Z,9.47
2018-05-27T18:32:30.130Z,7.30
2018-05-27T18:34:58.449Z,6.90
2018-05-27T18:37:26.675Z,8.20
2018-05-27T18:39:54.997Z,6.83
2018-05-27T18:42:22.566Z,7.27
2018-05-27T18:44:50.205Z,6.83
2018-05-27T18:47:17.758Z,7.10
2018-05-27T18:49:45.321Z,7.30
2018-05-27T18:52:12.854Z,7.10
2018-05-27T18:54:41.165Z,7.20
2018-05-27T18:57:08.735Z,7.10
2018-05-27T18:59:36.549Z,7.60
2018-05-27T19:02:04.881Z,7.40
2018-05-27T19:04:32.419Z,7.07
2018-05-27T19:06:59.990Z,6.83
2018-05-27T19:09:27.565Z,6.90
2018-05-27T19:11:55.119Z,8.13
2018-05-27T19:14:23.303Z,6.67
2018-05-27T19:16:51.669Z,7.03
2018-05-27T19:19:19.200Z,6.90
2018-05-27T19:21:46.760Z,7.03
2018-05-27T19:24:14.347Z,6.80
2018-05-27T19:26:41.908Z,7.57
2018-05-27T19:29:09.445Z,7.10
2018-05-27T19:31:37.008Z,7.60
2018-05-27T19:34:04.663Z,7.67
2018-05-27T19:36:32.234Z,7.90
2018-05-27T19:38:59.818Z,7.67
2018-05-27T19:41:27.474Z,7.73
2018-05-27T19:43:55.109Z,7.43
2018-05-27T19:46:23.660Z,7.20
2018-05-27T19:48:51.192Z,7.70
2018-05-27T19:51:18.746Z,7.43
2018-05-27T19:53:46.371Z,7.60
2018-05-27T19:56:13.938Z,7.83
2018-05-27T19:58:41.474Z,8.83
2018-05-27T20:01:09.121Z,7.83
2018-05-27T20:03:36.667Z,8.80
2018-05-27T20:06:04.990Z,9.30
2018-05-27T20:08:32.560Z,8.63
2018-05-27T20:11:00.102Z,8.60
2018-05-27T20:13:27.753Z,8.47
2018-05-27T20:15:55.274Z,8.37
2018-05-27T20:18:23.610Z,8.27
2018-05-27T20:20:51.146Z,7.63
2018-05-27T20:23:18.670Z,8.27
2018-05-27T20:25:46.960Z,9.67
2018-05-27T20:28:14.474Z,7.77
2018-05-27T20:30:42.057Z,8.00
2018-05-27T20:33:09.537Z,7.40
2018-05-27T20:35:37.049Z,7.83
2018-05-27T20:38:04.573Z,7.00
2018-05-27T20:40:32.100Z,6.87
2018-05-27T20:43:00.420Z,6.77
2018-05-27T20:45:27.942Z,6.10
2018-05-27T20:47:55.475Z,5.60
2018-05-27T20:50:24.105Z,6.20
2018-05-27T20:52:51.637Z,5.70
2018-05-27T20:55:19.184Z,6.40
2018-05-27T20:57:47.475Z,6.00
2018-05-27T21:00:15.003Z,6.83
2018-05-27T21:02:42.530Z,6.60
2018-05-27T21:05:10.045Z,6.87
2018-05-27T21:07:38.354Z,7.27
2018-05-27T21:10:05.873Z,7.70
2018-05-27T21:12:35.100Z,7.73
2018-05-27T21:15:02.646Z,7.33
2018-05-27T21:17:30.233Z,8.00
2018-05-27T21:19:57.797Z,7.80
2018-05-27T21:22:25.354Z,8.60
2018-05-27T21:24:52.991Z,8.13
2018-05-27T21:27:20.582Z,8.20
2018-05-27T21:29:48.118Z,8.70
2018-05-27T21:32:16.035Z,9.80
2018-05-27T21:34:44.334Z,10.00
2018-05-27T21:37:11.930Z,10.20
2018-05-27T21:39:39.459Z,10.80
2018-05-27T21:42:07.033Z,9.70
2018-05-27T21:44:34.599Z,11.53
2018-05-27T21:47:02.587Z,10.10
2018-05-27T21:49:30.104Z,10.40
2018-05-27T21:51:57.641Z,11.40
2018-05-27T21:54:25.955Z,11.37
2018-05-27T21:56:53.523Z,11.40
2018-05-27T21:59:21.041Z,10.87
2018-05-27T22:01:49.322Z,11.30
2018-05-27T22:04:17.639Z,10.93
2018-05-27T22:06:45.172Z,11.30
2018-05-27T22:09:12.729Z,11.03
2018-05-27T22:11:40.263Z,11.20
2018-05-27T22:14:08.576Z,11.10
2018-05-27T22:16:36.131Z,10.77
2018-05-27T22:19:03.664Z,10.00
2018-05-27T22:21:31.218Z,11.43
2018-05-27T22:23:59.506Z,11.00
2018-05-27T22:26:27.029Z,10.93
2018-05-27T22:28:54.559Z,11.93
2018-05-27T22:31:22.079Z,12.13
2018-05-27T22:33:49.624Z,12.03
2018-05-27T22:36:17.914Z,11.67
2018-05-27T22:38:45.510Z,10.70
2018-05-27T22:41:13.063Z,12.47
2018-05-27T22:43:40.594Z,12.10
2018-05-27T22:46:08.152Z,12.87
2018-05-27T22:48:37.709Z,12.57
2018-05-27T22:51:05.340Z,13.60
2018-05-27T22:53:32.930Z,14.10
2018-05-27T22:56:00.429Z,13.57
2018-05-27T22:58:28.756Z,13.13
2018-05-27T23:00:56.301Z,13.17
2018-05-27T23:03:23.888Z,12.50
2018-05-27T23:05:51.536Z,13.43
2018-05-27T23:08:19.069Z,14.90
2018-05-27T23:10:46.623Z,14.10
2018-05-27T23:13:14.152Z,14.27
2018-05-27T23:15:42.481Z,14.57
2018-05-27T23:18:10.015Z,14.57
2018-05-27T23:20:37.540Z,14.60
2018-05-27T23:23:05.880Z,15.20
2018-05-27T23:25:33.418Z,14.93
2018-05-27T23:28:00.959Z,13.63
2018-05-27T23:30:28.511Z,14.57
2018-05-27T23:32:56.041Z,14.80
2018-05-27T23:35:24.352Z,13.80
2018-05-27T23:37:51.898Z,14.77
2018-05-27T23:40:19.433Z,13.80
2018-05-27T23:42:47.743Z,14.40
2018-05-27T23:45:15.276Z,13.80
2018-05-27T23:47:43.589Z,14.37
2018-05-27T23:50:11.271Z,15.50
2018-05-27T23:52:38.806Z,15.67
2018-05-27T23:55:06.370Z,15.57
2018-05-27T23:57:33.905Z,15.30
